Time;durP1;ratioP1;P1;durP2;ratioP2;P2;SDS_P1;SDS_P2;PMS_P1;PMS_P2;Temp;Humidity;BMP_temperature;BMP_pressure;BME280_temperature;BME280_humidity;BME280_pressure;Samples;Min_cycle;Max_cycle;Signal;HPM_P1;HPM_P2
2022/12/12 00:00:49;;;;;;;0.60;0.60;;;0.90;99.90;;;;;;5028696;28;20041;-63
2022/12/12 00:03:15;;;;;;;0.68;0.68;;;1.00;99.90;;;;;;5031517;28;20076;-63
2022/12/12 00:05:40;;;;;;;5.40;1.83;;;1.00;99.90;;;;;;5017058;28;20485;-63
2022/12/12 00:08:06;;;;;;;0.38;0.32;;;0.90;99.90;;;;;;5011522;28;20056;-63
2022/12/12 00:10:33;;;;;;;0.85;0.85;;;0.90;99.90;;;;;;5027522;28;20049;-63
2022/12/12 00:12:58;;;;;;;0.20;0.20;;;0.90;99.90;;;;;;5024354;28;20055;-63
2022/12/12 00:15:24;;;;;;;5.25;3.30;;;0.90;99.90;;;;;;5029255;28;20042;-64
2022/12/12 00:17:50;;;;;;;0.82;0.82;;;0.90;99.90;;;;;;5027214;28;21255;-64
2022/12/12 00:20:15;;;;;;;0.68;0.68;;;0.90;99.90;;;;;;5028586;28;20029;-64
2022/12/12 00:22:41;;;;;;;0.30;0.30;;;0.90;99.90;;;;;;5030162;28;20440;-63
2022/12/12 00:25:07;;;;;;;0.93;0.68;;;0.90;99.90;;;;;;5030347;28;20478;-63
2022/12/12 00:27:33;;;;;;;1.05;0.93;;;0.90;99.90;;;;;;5026576;28;20128;-64
2022/12/12 00:29:58;;;;;;;0.63;0.63;;;0.90;99.90;;;;;;5030152;28;20681;-63
2022/12/12 00:32:24;;;;;;;0.50;0.50;;;1.00;99.90;;;;;;5025553;28;20116;-64
2022/12/12 00:34:50;;;;;;;0.32;0.32;;;1.10;99.90;;;;;;5029347;28;20111;-64
2022/12/12 00:37:15;;;;;;;0.75;0.75;;;1.10;99.90;;;;;;5029527;28;20528;-63
2022/12/12 00:39:41;;;;;;;0.47;0.47;;;1.10;99.90;;;;;;5045165;28;20410;-64
2022/12/12 00:42:07;;;;;;;0.20;0.20;;;1.10;99.90;;;;;;5026562;28;20124;-64
2022/12/12 00:44:33;;;;;;;1.00;1.00;;;1.10;99.90;;;;;;5028269;28;20061;-63
2022/12/12 00:46:58;;;;;;;0.55;0.55;;;1.10;99.90;;;;;;5030167;28;20045;-64
2022/12/12 00:49:24;;;;;;;0.32;0.32;;;1.20;99.90;;;;;;5026965;28;20045;-63
2022/12/12 00:51:49;;;;;;;0.20;0.20;;;1.20;99.90;;;;;;5028863;28;20043;-64
2022/12/12 00:54:15;;;;;;;0.30;0.30;;;1.20;99.90;;;;;;5029308;28;20042;-64
2022/12/12 00:56:41;;;;;;;8.02;2.17;;;1.20;99.90;;;;;;5026227;28;20084;-63
2022/12/12 00:59:07;;;;;;;3.63;1.30;;;1.20;99.90;;;;;;5029645;28;20053;-63
2022/12/12 01:01:33;;;;;;;1.55;1.13;;;1.20;99.90;;;;;;5027703;28;20048;-64
2022/12/12 01:04:00;;;;;;;0.20;0.20;;;1.20;99.90;;;;;;5028448;28;20048;-64
2022/12/12 01:06:27;;;;;;;1.45;1.35;;;1.20;99.90;;;;;;5029198;28;20064;-64
2022/12/12 01:08:52;;;;;;;4.63;4.10;;;1.20;99.90;;;;;;5027919;28;20088;-64
2022/12/12 01:11:19;;;;;;;0.45;0.45;;;1.30;99.90;;;;;;5026553;28;20437;-63
2022/12/12 01:13:47;;;;;;;9.05;4.70;;;1.30;99.90;;;;;;5028490;28;20053;-64
2022/12/12 01:16:13;;;;;;;0.60;0.60;;;1.30;99.90;;;;;;5027957;28;20539;-63
2022/12/12 01:18:40;;;;;;;3.85;2.40;;;1.30;99.90;;;;;;5027171;28;20049;-64
2022/12/12 01:21:14;;;;;;;2.05;1.95;;;1.30;99.90;;;;;;5029905;28;20085;-64
2022/12/12 01:23:40;;;;;;;0.98;0.90;;;1.30;99.90;;;;;;5023778;28;20065;-64
2022/12/12 01:26:16;;;;;;;4.45;3.13;;;1.30;99.90;;;;;;5028157;28;20378;-64
2022/12/12 01:28:42;;;;;;;0.75;0.75;;;1.30;99.90;;;;;;5025009;28;20084;-63
2022/12/12 01:31:08;;;;;;;1.70;1.60;;;1.40;99.90;;;;;;5028404;28;20037;-64
2022/12/12 01:33:34;;;;;;;0.55;0.55;;;1.40;99.90;;;;;;5021539;28;20049;-63
2022/12/12 01:35:59;;;;;;;0.20;0.20;;;1.40;99.90;;;;;;5028406;28;20049;-64
2022/12/12 01:38:25;;;;;;;1.27;1.00;;;1.40;99.90;;;;;;5027414;28;20502;-63
2022/12/12 01:40:51;;;;;;;0.40;0.40;;;1.40;99.90;;;;;;5022522;28;20038;-64
2022/12/12 01:43:20;;;;;;;1.20;1.10;;;1.40;99.90;;;;;;5027505;28;20072;-63
2022/12/12 01:46:01;;;;;;;0.20;0.20;;;1.30;99.90;;;;;;5027340;28;20085;-64
2022/12/12 01:48:55;;;;;;;2.25;1.50;;;1.30;99.90;;;;;;5027635;28;20136;-63
2022/12/12 01:51:23;;;;;;;0.85;0.85;;;1.30;99.90;;;;;;4998177;28;20107;-64
2022/12/12 01:53:53;;;;;;;0.45;0.45;;;1.30;99.90;;;;;;5027565;28;20091;-63
2022/12/12 01:56:20;;;;;;;0.90;0.90;;;1.40;99.90;;;;;;5027167;28;20532;-64
2022/12/12 01:58:49;;;;;;;0.65;0.65;;;1.40;99.90;;;;;;5025571;28;20053;-63
2022/12/12 02:01:15;;;;;;;1.85;1.75;;;1.40;99.90;;;;;;5027254;28;20073;-63
2022/12/12 02:03:42;;;;;;;4.80;1.75;;;1.30;99.90;;;;;;5027425;28;20065;-64
2022/12/12 02:06:19;;;;;;;1.15;0.65;;;1.40;99.90;;;;;;5027150;28;20045;-64
2022/12/12 02:08:45;;;;;;;1.23;1.17;;;1.40;99.90;;;;;;5027955;28;20049;-64
2022/12/12 02:11:12;;;;;;;0.43;0.43;;;1.40;99.90;;;;;;5025870;28;20045;-64
2022/12/12 02:13:37;;;;;;;4.32;4.00;;;1.50;99.90;;;;;;5025741;28;20041;-64
2022/12/12 02:16:51;;;;;;;0.20;0.20;;;1.50;99.90;;;;;;5028091;28;20052;-64
2022/12/12 02:19:35;;;;;;;1.27;1.27;;;1.50;99.90;;;;;;5021460;28;20056;-63
2022/12/12 02:22:07;;;;;;;0.55;0.55;;;1.50;99.90;;;;;;5028750;28;20041;-64
2022/12/12 02:24:59;;;;;;;0.52;0.52;;;1.50;99.90;;;;;;5026613;28;20045;-64
2022/12/12 02:28:03;;;;;;;0.47;0.47;;;1.50;99.90;;;;;;5022218;28;20057;-64
2022/12/12 02:30:53;;;;;;;0.33;0.33;;;1.50;99.90;;;;;;5003652;28;20126;-64
2022/12/12 02:33:42;;;;;;;0.43;0.43;;;1.50;99.90;;;;;;5023609;28;20037;-64
2022/12/12 02:36:08;;;;;;;3.67;2.22;;;1.50;99.90;;;;;;5028284;28;20037;-64
2022/12/12 02:38:39;;;;;;;0.77;0.77;;;1.60;99.90;;;;;;5021784;28;20107;-64
2022/12/12 02:41:34;;;;;;;0.10;0.10;;;1.60;99.90;;;;;;5025581;28;20041;-63
2022/12/12 02:44:15;;;;;;;0.65;0.65;;;1.60;99.90;;;;;;5026095;28;20095;-65
2022/12/12 02:47:06;;;;;;;5.68;1.95;;;1.50;99.90;;;;;;5026013;28;20080;-63
2022/12/12 02:49:52;;;;;;;0.32;0.32;;;1.60;99.90;;;;;;5026171;28;20053;-63
2022/12/12 02:52:18;;;;;;;0.55;0.35;;;1.60;99.90;;;;;;5025408;28;20060;-63
2022/12/12 02:54:44;;;;;;;9.43;1.90;;;1.60;99.90;;;;;;5024553;28;20041;-64
2022/12/12 02:57:18;;;;;;;0.38;0.38;;;1.60;99.90;;;;;;5025874;28;20096;-63
2022/12/12 02:59:51;;;;;;;1.17;1.13;;;1.60;99.90;;;;;;5025464;28;20080;-64
2022/12/12 03:02:32;;;;;;;0.10;0.10;;;1.60;99.90;;;;;;5025141;28;20408;-64
2022/12/12 03:08:15;;;;;;;2.90;2.72;;;1.60;99.90;;;;;;5026124;28;20597;-63
2022/12/12 03:11:07;;;;;;;0.73;0.73;;;1.50;99.90;;;;;;5026508;28;20489;-64
2022/12/12 03:13:58;;;;;;;0.40;0.40;;;1.50;99.90;;;;;;5028811;28;20045;-64
2022/12/12 03:16:31;;;;;;;0.50;0.50;;;1.50;99.90;;;;;;5029651;28;20437;-63
2022/12/12 03:19:07;;;;;;;0.63;0.63;;;1.50;99.90;;;;;;5030238;28;20041;-63
2022/12/12 03:21:41;;;;;;;1.38;1.10;;;1.50;99.90;;;;;;5029497;28;20095;-64
2022/12/12 03:24:23;;;;;;;1.15;1.15;;;1.50;99.90;;;;;;5030589;28;20815;-63
2022/12/12 03:27:04;;;;;;;0.55;0.55;;;1.50;99.90;;;;;;5031555;28;20096;-64
2022/12/12 03:29:35;;;;;;;0.55;0.55;;;1.50;99.90;;;;;;5027647;28;20053;-64
2022/12/12 03:32:09;;;;;;;1.15;1.05;;;1.40;99.90;;;;;;5031819;28;20405;-64
2022/12/12 03:34:54;;;;;;;0.98;0.98;;;1.50;99.90;;;;;;5031033;28;20493;-64
2022/12/12 03:37:32;;;;;;;4.60;0.95;;;1.40;99.90;;;;;;5029680;28;20080;-64
2022/12/12 03:40:05;;;;;;;0.20;0.20;;;1.30;99.90;;;;;;5029387;28;20045;-63
2022/12/12 03:42:42;;;;;;;0.20;0.20;;;1.30;99.90;;;;;;5028532;28;20041;-63
2022/12/12 03:45:22;;;;;;;1.23;1.17;;;1.20;99.90;;;;;;5029328;28;20052;-64
2022/12/12 03:48:09;;;;;;;1.40;1.30;;;1.20;99.90;;;;;;5029950;28;20060;-64
2022/12/12 03:50:44;;;;;;;1.50;1.40;;;1.20;99.90;;;;;;5015007;28;20483;-64
2022/12/12 03:53:32;;;;;;;0.90;0.90;;;1.20;99.90;;;;;;5029998;28;20034;-63
2022/12/12 03:56:06;;;;;;;1.40;1.30;;;1.10;99.90;;;;;;5028885;28;20136;-63
2022/12/12 03:58:39;;;;;;;2.20;1.70;;;1.10;99.90;;;;;;5027439;28;20429;-64
2022/12/12 04:01:09;;;;;;;1.05;1.05;;;1.10;99.90;;;;;;5028976;28;20052;-63
2022/12/12 04:03:53;;;;;;;2.53;2.40;;;1.10;99.90;;;;;;5029632;28;20551;-63
2022/12/12 04:06:27;;;;;;;;;;;1.10;99.90;;;;;;5029863;28;20116;-63
2022/12/12 04:15:29;;;;;;;1.23;1.20;;;1.10;99.90;;;;;;5022992;28;20045;-63
2022/12/12 04:17:58;;;;;;;0.10;0.10;;;1.10;99.90;;;;;;5028177;28;20044;-63
2022/12/12 04:23:37;;;;;;;0.30;0.30;;;1.10;99.90;;;;;;5029828;28;20046;-63
2022/12/12 04:26:40;;;;;;;0.13;0.13;;;1.20;99.90;;;;;;5027998;28;20052;-63
2022/12/12 04:29:18;;;;;;;0.95;0.95;;;1.20;99.90;;;;;;5027878;28;20388;-63
2022/12/12 04:31:59;;;;;;;0.43;0.43;;;1.10;99.90;;;;;;5023825;28;20176;-63
2022/12/12 04:34:54;;;;;;;0.15;0.15;;;1.10;99.90;;;;;;5024158;28;20057;-63
2022/12/12 04:37:39;;;;;;;;;;;1.10;99.90;;;;;;5028157;28;20677;-63
2022/12/12 04:40:08;;;;;;;0.57;0.57;;;1.20;99.90;;;;;;5019735;28;19967;-63
2022/12/12 04:42:41;;;;;;;0.30;0.30;;;1.20;99.90;;;;;;5026021;28;20045;-63
2022/12/12 04:45:14;;;;;;;0.43;0.43;;;1.20;99.90;;;;;;5025071;28;20058;-63
2022/12/12 04:47:42;;;;;;;0.30;0.30;;;1.10;99.90;;;;;;5027182;28;20045;-63
2022/12/12 04:50:09;;;;;;;0.20;0.20;;;1.20;99.90;;;;;;5027153;28;20041;-63
2022/12/12 04:52:36;;;;;;;0.60;0.60;;;1.20;99.90;;;;;;5028512;28;20048;-63
2022/12/12 04:55:30;;;;;;;0.20;0.20;;;1.20;99.90;;;;;;5028194;28;20049;-63
2022/12/12 04:57:56;;;;;;;1.85;1.75;;;1.30;99.90;;;;;;5026644;28;20054;-63
2022/12/12 05:00:24;;;;;;;0.35;0.35;;;1.20;99.90;;;;;;5026092;28;20030;-63
2022/12/12 05:03:05;;;;;;;0.20;0.20;;;1.20;99.90;;;;;;5028716;28;20064;-63
2022/12/12 05:06:11;;;;;;;1.52;1.42;;;1.20;99.90;;;;;;5028527;28;20072;-63
2022/12/12 05:08:41;;;;;;;2.00;1.85;;;1.20;99.90;;;;;;5013965;28;20111;-63
2022/12/12 05:11:08;;;;;;;1.48;1.38;;;1.20;99.90;;;;;;5027781;28;20386;-64
2022/12/12 05:13:37;;;;;;;16.05;5.70;;;1.20;99.90;;;;;;5023119;28;20085;-64
2022/12/12 05:16:24;;;;;;;0.68;0.68;;;1.20;99.90;;;;;;5023848;28;20051;-63
2022/12/12 05:18:50;;;;;;;0.30;0.30;;;1.10;99.90;;;;;;5028599;28;20121;-63
2022/12/12 05:21:16;;;;;;;3.17;1.75;;;1.20;99.90;;;;;;5028293;28;20485;-64
2022/12/12 05:23:41;;;;;;;1.42;1.33;;;1.20;99.90;;;;;;5022738;28;20050;-63
2022/12/12 05:26:25;;;;;;;1.00;1.00;;;1.20;99.90;;;;;;5023047;28;20041;-63
2022/12/12 05:28:51;;;;;;;1.45;1.45;;;1.20;99.90;;;;;;5019377;28;20517;-63
2022/12/12 05:31:16;;;;;;;0.10;0.10;;;1.20;99.90;;;;;;5021203;28;20077;-63
2022/12/12 05:33:42;;;;;;;0.60;0.60;;;1.20;99.90;;;;;;5028072;28;20504;-63
2022/12/12 05:36:08;;;;;;;0.73;0.73;;;1.20;99.90;;;;;;5027786;28;20041;-63
2022/12/12 05:38:34;;;;;;;0.75;0.75;;;1.20;99.90;;;;;;5028015;28;20095;-63
2022/12/12 05:40:59;;;;;;;0.63;0.63;;;1.20;99.90;;;;;;5028591;28;20041;-63
2022/12/12 05:43:25;;;;;;;0.20;0.20;;;1.20;99.90;;;;;;5027525;28;20132;-63
2022/12/12 05:45:51;;;;;;;1.05;1.05;;;1.20;99.90;;;;;;5025358;28;20102;-63
2022/12/12 05:48:16;;;;;;;1.48;0.75;;;1.10;99.90;;;;;;5024162;28;20132;-63
2022/12/12 05:50:42;;;;;;;0.47;0.47;;;1.20;99.90;;;;;;5026508;28;20115;-63
2022/12/12 05:53:08;;;;;;;1.10;1.10;;;1.20;99.90;;;;;;5027446;28;20088;-63
2022/12/12 05:55:34;;;;;;;0.35;0.35;;;1.30;99.90;;;;;;5028955;28;20049;-63
2022/12/12 05:57:59;;;;;;;1.08;1.08;;;1.30;99.90;;;;;;5025303;28;20067;-63
2022/12/12 06:00:25;;;;;;;0.25;0.25;;;1.30;99.90;;;;;;5026542;28;20048;-63
2022/12/12 06:02:51;;;;;;;0.30;0.30;;;1.30;99.90;;;;;;5026499;28;20489;-63
2022/12/12 06:05:16;;;;;;;0.55;0.55;;;1.40;99.90;;;;;;5026195;28;20045;-63
2022/12/12 06:07:42;;;;;;;1.70;1.65;;;1.40;99.90;;;;;;5023546;28;20068;-63
2022/12/12 06:10:08;;;;;;;0.20;0.20;;;1.40;99.90;;;;;;5027121;28;20132;-63
2022/12/12 06:12:33;;;;;;;0.17;0.17;;;1.40;99.90;;;;;;5026079;28;20041;-63
2022/12/12 06:14:59;;;;;;;0.40;0.40;;;1.40;99.90;;;;;;5025538;28;20537;-63
2022/12/12 06:17:24;;;;;;;1.08;1.02;;;1.40;99.90;;;;;;5026474;28;20042;-63
2022/12/12 06:19:51;;;;;;;1.55;1.25;;;1.40;99.90;;;;;;5023659;28;20050;-63
2022/12/12 06:22:17;;;;;;;2.10;0.85;;;1.30;99.90;;;;;;5011491;28;20643;-63
2022/12/12 06:24:42;;;;;;;0.30;0.30;;;1.30;99.90;;;;;;5027310;28;20050;-64
2022/12/12 06:27:08;;;;;;;8.77;1.58;;;1.30;99.90;;;;;;5026543;28;20134;-63
2022/12/12 06:29:34;;;;;;;1.00;1.00;;;1.30;99.90;;;;;;5025552;28;20095;-64
2022/12/12 06:31:59;;;;;;;1.90;1.60;;;1.30;99.90;;;;;;5026497;28;20125;-63
2022/12/12 06:34:25;;;;;;;0.52;0.52;;;1.40;99.90;;;;;;5026113;28;20469;-64
2022/12/12 06:36:50;;;;;;;1.98;1.80;;;1.40;99.90;;;;;;5027951;28;20038;-64
2022/12/12 06:39:16;;;;;;;0.10;0.10;;;1.40;99.90;;;;;;5025781;28;21878;-63
2022/12/12 06:41:42;;;;;;;1.52;1.42;;;1.40;99.90;;;;;;5025648;28;20061;-63
2022/12/12 06:44:08;;;;;;;0.90;0.90;;;1.40;99.90;;;;;;5026712;28;20500;-64
2022/12/12 06:46:34;;;;;;;1.02;1.02;;;1.40;99.90;;;;;;5025616;28;20508;-63
2022/12/12 06:48:59;;;;;;;1.02;1.02;;;1.40;99.90;;;;;;5026763;28;20088;-63
2022/12/12 06:51:30;;;;;;;0.30;0.30;;;1.40;99.90;;;;;;5026595;28;20037;-63
2022/12/12 06:53:56;;;;;;;1.83;1.48;;;1.40;99.90;;;;;;5023898;28;20045;-63
2022/12/12 06:56:24;;;;;;;0.82;0.63;;;1.30;99.90;;;;;;5023373;28;20049;-63
2022/12/12 06:58:50;;;;;;;0.17;0.17;;;1.30;99.90;;;;;;5025661;28;20064;-63
2022/12/12 07:01:18;;;;;;;0.65;0.65;;;1.40;99.90;;;;;;5025118;28;20492;-63
2022/12/12 07:03:44;;;;;;;0.38;0.38;;;1.40;99.90;;;;;;5024309;28;20045;-63
2022/12/12 07:06:10;;;;;;;0.10;0.10;;;1.40;99.90;;;;;;5027830;28;20037;-63
2022/12/12 07:08:36;;;;;;;1.23;0.63;;;1.40;99.90;;;;;;5024532;28;20037;-64
2022/12/12 07:11:09;;;;;;;0.52;0.52;;;1.40;99.90;;;;;;5020198;28;20228;-63
2022/12/12 07:13:34;;;;;;;0.77;0.77;;;1.50;99.90;;;;;;5018860;28;20077;-64
2022/12/12 07:16:00;;;;;;;0.40;0.40;;;1.50;99.90;;;;;;5022305;28;20135;-63
2022/12/12 07:18:25;;;;;;;3.20;1.35;;;1.40;99.90;;;;;;5027024;28;20042;-64
2022/12/12 07:20:51;;;;;;;0.70;0.65;;;1.50;99.90;;;;;;5027600;28;20037;-64
2022/12/12 07:23:17;;;;;;;0.28;0.28;;;1.50;99.90;;;;;;5026202;28;20584;-63
2022/12/12 07:25:43;;;;;;;0.13;0.13;;;1.40;99.90;;;;;;5024539;28;20473;-63
2022/12/12 07:28:10;;;;;;;0.82;0.82;;;1.40;99.90;;;;;;5023196;28;20042;-63
2022/12/12 07:30:40;;;;;;;0.20;0.20;;;1.50;99.90;;;;;;5024024;28;20113;-64
2022/12/12 07:33:06;;;;;;;0.20;0.20;;;1.50;99.90;;;;;;5027157;28;20057;-63
2022/12/12 07:35:32;;;;;;;0.30;0.30;;;1.50;99.90;;;;;;5025591;28;20043;-63
2022/12/12 07:37:58;;;;;;;0.60;0.60;;;1.50;99.90;;;;;;5024390;28;20037;-63
2022/12/12 07:40:23;;;;;;;2.08;1.55;;;1.50;99.90;;;;;;5026435;28;20504;-63
2022/12/12 07:42:49;;;;;;;0.30;0.30;;;1.50;99.90;;;;;;5024544;28;20045;-63
2022/12/12 07:45:15;;;;;;;0.25;0.25;;;1.50;99.90;;;;;;5024091;28;20168;-63
2022/12/12 07:47:40;;;;;;;0.63;0.63;;;1.50;99.90;;;;;;5027276;28;20037;-63
2022/12/12 07:50:06;;;;;;;0.40;0.40;;;1.50;99.90;;;;;;5027474;28;20041;-63
2022/12/12 07:52:32;;;;;;;1.48;1.48;;;1.50;99.90;;;;;;5025638;28;20037;-63
2022/12/12 07:54:57;;;;;;;0.75;0.75;;;1.50;99.90;;;;;;5023352;28;20053;-63
2022/12/12 07:57:23;;;;;;;0.22;0.22;;;1.50;99.90;;;;;;5016490;28;20601;-63
2022/12/12 07:59:49;;;;;;;0.30;0.30;;;1.50;99.90;;;;;;5031437;28;20058;-64
2022/12/12 08:02:14;;;;;;;0.90;0.90;;;1.50;99.90;;;;;;5029636;28;20084;-64
2022/12/12 08:04:40;;;;;;;0.52;0.52;;;1.50;99.90;;;;;;5018383;28;20050;-63
2022/12/12 08:07:05;;;;;;;1.15;0.70;;;1.50;99.90;;;;;;5019184;28;20088;-63
2022/12/12 08:09:31;;;;;;;1.42;1.25;;;1.50;99.90;;;;;;5027794;28;20037;-63
2022/12/12 08:11:57;;;;;;;2.00;1.58;;;1.50;99.90;;;;;;5028566;28;20096;-63
2022/12/12 08:14:24;;;;;;;0.25;0.25;;;1.50;99.90;;;;;;5027386;28;20064;-63
2022/12/12 08:16:50;;;;;;;1.33;1.30;;;1.40;99.90;;;;;;5028830;28;20507;-63
2022/12/12 08:19:16;;;;;;;0.30;0.30;;;1.40;99.90;;;;;;5029281;28;20484;-63
2022/12/12 08:21:43;;;;;;;0.40;0.40;;;1.50;99.90;;;;;;5030366;28;20048;-64
2022/12/12 08:24:11;;;;;;;0.30;0.30;;;1.50;99.90;;;;;;5029893;28;20540;-64
2022/12/12 08:26:36;;;;;;;1.05;1.02;;;1.50;99.90;;;;;;5030236;28;20454;-64
2022/12/12 08:29:02;;;;;;;0.93;0.93;;;1.50;99.90;;;;;;5046268;28;20053;-64
2022/12/12 08:31:27;;;;;;;0.40;0.40;;;1.50;99.90;;;;;;5028644;28;20044;-63
2022/12/12 08:33:54;;;;;;;0.28;0.28;;;1.50;99.90;;;;;;5028390;28;20087;-63
2022/12/12 08:36:21;;;;;;;0.30;0.30;;;1.50;99.90;;;;;;5029225;28;20049;-63
2022/12/12 08:38:47;;;;;;;0.20;0.20;;;1.50;99.90;;;;;;5028461;28;20049;-63
2022/12/12 08:41:13;;;;;;;0.20;0.20;;;1.50;99.90;;;;;;5028867;28;20045;-63
2022/12/12 08:43:40;;;;;;;0.88;0.82;;;1.50;99.90;;;;;;5023399;28;20451;-63
2022/12/12 08:46:07;;;;;;;0.57;0.57;;;1.40;99.90;;;;;;5028152;28;20054;-64
2022/12/12 08:48:32;;;;;;;1.48;1.38;;;1.40;99.90;;;;;;5028586;28;20049;-63
2022/12/12 08:50:59;;;;;;;0.50;0.50;;;1.40;99.90;;;;;;5029682;28;20102;-63
2022/12/12 08:53:25;;;;;;;0.30;0.30;;;1.40;99.90;;;;;;5029778;28;20045;-63
2022/12/12 08:55:51;;;;;;;1.00;0.90;;;1.30;99.90;;;;;;5028521;28;20068;-63
2022/12/12 08:58:17;;;;;;;0.10;0.10;;;1.30;99.90;;;;;;5030275;28;20497;-63
2022/12/12 09:00:42;;;;;;;0.45;0.45;;;1.30;99.90;;;;;;5028921;28;20045;-63
2022/12/12 09:03:08;;;;;;;3.25;1.00;;;1.20;99.90;;;;;;5030762;28;20041;-63
2022/12/12 09:05:34;;;;;;;0.45;0.45;;;1.40;99.90;;;;;;5029668;28;20042;-63
2022/12/12 09:08:00;;;;;;;2.92;2.50;;;1.30;99.90;;;;;;5028320;28;20145;-63
2022/12/12 09:10:26;;;;;;;1.65;1.55;;;1.30;99.90;;;;;;5028611;28;20128;-64
2022/12/12 09:12:52;;;;;;;1.75;1.05;;;1.40;99.90;;;;;;5028996;28;20557;-64
2022/12/12 09:15:19;;;;;;;1.13;1.02;;;1.30;99.90;;;;;;5028702;28;20056;-63
2022/12/12 09:17:44;;;;;;;0.15;0.15;;;1.30;99.90;;;;;;5028979;28;20049;-63
2022/12/12 09:20:11;;;;;;;0.70;0.70;;;1.30;99.90;;;;;;5029358;28;20046;-63
2022/12/12 09:22:36;;;;;;;2.50;1.75;;;1.30;99.90;;;;;;5029069;28;20045;-63
2022/12/12 09:25:03;;;;;;;0.20;0.20;;;1.40;99.90;;;;;;5028795;28;20135;-64
2022/12/12 09:27:29;;;;;;;0.68;0.68;;;1.40;99.90;;;;;;5029367;28;20033;-64
2022/12/12 09:29:55;;;;;;;0.20;0.20;;;1.50;99.90;;;;;;5026360;28;20053;-63
2022/12/12 09:32:20;;;;;;;0.88;0.68;;;1.50;99.90;;;;;;5028097;28;20428;-63
2022/12/12 09:34:46;;;;;;;2.55;1.13;;;1.50;99.90;;;;;;5028309;28;20045;-63
2022/12/12 09:37:11;;;;;;;2.22;2.05;;;1.50;99.90;;;;;;5044314;28;20080;-63
2022/12/12 09:39:37;;;;;;;0.30;0.30;;;1.60;99.90;;;;;;5028826;28;20408;-63
2022/12/12 09:42:23;;;;;;;0.17;0.17;;;1.50;99.90;;;;;;5028046;28;20136;-63
2022/12/12 09:44:51;;;;;;;0.82;0.82;;;1.50;99.90;;;;;;5027441;28;20099;-63
2022/12/12 09:47:35;;;;;;;0.40;0.40;;;1.60;99.90;;;;;;5029832;28;20140;-63
2022/12/12 09:50:05;;;;;;;;;;;1.70;99.90;;;;;;5026178;28;20041;-63
2022/12/12 09:52:34;;;;;;;0.40;0.40;;;1.70;99.90;;;;;;5028908;28;20394;-63
2022/12/12 09:55:21;;;;;;;1.38;1.35;;;1.70;99.90;;;;;;5026762;28;20064;-63
2022/12/12 09:58:01;;;;;;;0.20;0.20;;;1.80;99.90;;;;;;5028207;28;20072;-63
2022/12/12 10:00:30;;;;;;;2.20;1.35;;;1.70;99.90;;;;;;5027836;28;20075;-63
2022/12/12 10:03:30;;;;;;;0.28;0.28;;;1.80;99.90;;;;;;5028957;28;20084;-63
2022/12/12 10:06:06;;;;;;;0.10;0.10;;;1.80;99.90;;;;;;5028279;28;20044;-63
2022/12/12 10:08:45;;;;;;;0.20;0.20;;;1.90;99.90;;;;;;5027767;28;20041;-64
2022/12/12 10:14:08;;;;;;;0.30;0.30;;;2.00;99.90;;;;;;5027297;28;20050;-63
2022/12/12 10:16:37;;;;;;;0.20;0.20;;;2.00;99.90;;;;;;5018851;28;20439;-63
2022/12/12 10:19:17;;;;;;;0.30;0.30;;;2.00;99.90;;;;;;5025188;28;20045;-64
2022/12/12 10:21:46;;;;;;;0.45;0.45;;;2.10;99.90;;;;;;5019527;28;20052;-64
2022/12/12 10:24:17;;;;;;;0.80;0.80;;;2.10;99.90;;;;;;5027090;28;20044;-64
2022/12/12 10:26:43;;;;;;;2.15;2.03;;;2.20;99.90;;;;;;5028749;28;20607;-63
2022/12/12 10:29:20;;;;;;;2.05;1.15;;;2.20;99.90;;;;;;5025100;28;20107;-63
2022/12/12 10:32:00;;;;;;;0.57;0.57;;;2.20;99.90;;;;;;5027395;28;20477;-63
2022/12/12 10:34:35;;;;;;;0.85;0.85;;;2.20;99.90;;;;;;5027074;28;20049;-63
2022/12/12 10:37:23;;;;;;;1.42;1.33;;;2.30;99.90;;;;;;5027662;28;20042;-63
2022/12/12 10:39:51;;;;;;;1.75;1.65;;;2.30;99.90;;;;;;5027156;28;20128;-63
2022/12/12 10:42:27;;;;;;;1.23;1.13;;;2.40;99.90;;;;;;5028701;28;20120;-63
2022/12/12 10:45:00;;;;;;;1.30;1.20;;;2.30;99.90;;;;;;5025483;28;20053;-64
2022/12/12 10:47:26;;;;;;;0.25;0.25;;;2.40;99.90;;;;;;5027935;28;20049;-64
2022/12/12 10:50:00;;;;;;;1.15;0.88;;;2.40;99.90;;;;;;5024541;28;20397;-64
2022/12/12 10:52:26;;;;;;;0.55;0.55;;;2.30;99.90;;;;;;5023187;28;20077;-64
2022/12/12 10:54:58;;;;;;;0.30;0.30;;;2.30;99.90;;;;;;5026638;28;20072;-64
2022/12/12 10:57:32;;;;;;;0.20;0.20;;;2.40;99.90;;;;;;5026309;28;20033;-64
2022/12/12 10:59:58;;;;;;;1.15;1.10;;;2.40;99.90;;;;;;5025417;28;20042;-64
2022/12/12 11:02:37;;;;;;;1.42;1.33;;;2.40;99.90;;;;;;5026846;28;20052;-64
2022/12/12 11:05:28;;;;;;;1.95;1.85;;;2.40;99.90;;;;;;5027394;28;20132;-64
2022/12/12 11:08:06;;;;;;;0.30;0.30;;;2.40;99.90;;;;;;5026740;28;20111;-64
2022/12/12 11:10:36;;;;;;;0.20;0.20;;;2.50;99.90;;;;;;5022909;28;20052;-63
2022/12/12 11:13:14;;;;;;;0.28;0.28;;;2.50;99.90;;;;;;5024653;28;20041;-64
2022/12/12 11:15:50;;;;;;;1.95;1.85;;;2.40;99.90;;;;;;5015695;28;20042;-63
2022/12/12 11:18:18;;;;;;;1.55;1.45;;;2.50;99.90;;;;;;5023812;28;20048;-63
2022/12/12 11:20:50;;;;;;;1.27;1.20;;;2.50;99.90;;;;;;5025951;28;20052;-65
2022/12/12 11:23:22;;;;;;;0.20;0.20;;;2.50;99.90;;;;;;5027515;28;20126;-64
2022/12/12 11:26:16;;;;;;;0.95;0.95;;;2.50;99.90;;;;;;5025367;28;20069;-63
2022/12/12 11:28:45;;;;;;;1.10;1.10;;;2.50;99.90;;;;;;5020435;28;20057;-64
2022/12/12 11:31:15;;;;;;;0.20;0.20;;;2.50;99.90;;;;;;5027188;28;20042;-63
2022/12/12 11:33:47;;;;;;;0.10;0.10;;;2.50;99.90;;;;;;5029364;28;20045;-63
2022/12/12 11:36:18;;;;;;;0.55;0.55;;;2.50;99.90;;;;;;5029142;28;20098;-63
2022/12/12 11:38:51;;;;;;;8.40;2.08;;;2.60;99.90;;;;;;5029703;28;20072;-64
2022/12/12 11:41:17;;;;;;;0.75;0.75;;;2.70;99.90;;;;;;5032291;28;20049;-65
2022/12/12 11:43:49;;;;;;;4.88;2.05;;;2.80;99.90;;;;;;5028964;28;20096;-65
2022/12/12 11:46:14;;;;;;;0.85;0.85;;;2.90;99.90;;;;;;5028931;28;20046;-64
2022/12/12 11:49:01;;;;;;;0.40;0.40;;;2.90;99.90;;;;;;5030103;28;20049;-65
2022/12/12 11:51:31;;;;;;;0.93;0.93;;;3.00;99.90;;;;;;5031744;28;20042;-65
2022/12/12 11:53:57;;;;;;;0.30;0.30;;;3.00;99.90;;;;;;5028930;28;20075;-65
2022/12/12 11:56:43;;;;;;;0.13;0.13;;;3.00;99.90;;;;;;5029063;28;20045;-65
2022/12/12 11:59:27;;;;;;;0.25;0.25;;;3.10;99.90;;;;;;5030662;28;20045;-65
2022/12/12 12:02:02;;;;;;;0.20;0.20;;;3.30;99.90;;;;;;5029758;28;20053;-65
2022/12/12 12:04:50;;;;;;;0.93;0.93;;;3.20;99.90;;;;;;5028869;28;20606;-65
2022/12/12 12:07:15;;;;;;;0.60;0.60;;;3.50;99.90;;;;;;5030517;28;20041;-65
2022/12/12 12:09:43;;;;;;;2.92;0.85;;;3.30;99.90;;;;;;5030654;28;20127;-65
2022/12/12 12:12:15;;;;;;;0.47;0.47;;;3.40;99.90;;;;;;5029676;28;20061;-65
2022/12/12 12:15:13;;;;;;;1.33;1.23;;;3.50;99.90;;;;;;5030146;28;20045;-65
2022/12/12 12:17:54;;;;;;;0.60;0.60;;;3.50;99.90;;;;;;5027827;28;20205;-65
2022/12/12 12:21:14;;;;;;;1.60;1.50;;;3.50;99.90;;;;;;5031188;28;20088;-65
2022/12/12 12:24:04;;;;;;;6.97;1.52;;;3.60;99.90;;;;;;4987909;28;20696;-65
2022/12/12 12:26:35;;;;;;;0.85;0.85;;;3.60;99.90;;;;;;5030330;28;20049;-65
2022/12/12 12:29:25;;;;;;;3.20;1.58;;;3.70;99.90;;;;;;5030574;28;20049;-65
2022/12/12 12:32:27;;;;;;;0.55;0.55;;;3.90;99.90;;;;;;5028783;28;20037;-65
2022/12/12 12:35:16;;;;;;;3.85;1.50;;;3.90;99.90;;;;;;5013950;28;20042;-65
2022/12/12 12:38:19;;;;;;;2.08;1.23;;;4.10;99.90;;;;;;5030062;28;20825;-65
2022/12/12 12:41:20;;;;;;;2.85;1.83;;;4.20;99.90;;;;;;5030341;28;20049;-65
2022/12/12 12:43:52;;;;;;;0.30;0.30;;;4.30;99.90;;;;;;5026292;28;20045;-65
2022/12/12 12:46:33;;;;;;;1.65;1.35;;;4.30;99.90;;;;;;5009465;28;20058;-65
2022/12/12 12:49:08;;;;;;;2.13;0.65;;;4.40;99.90;;;;;;5009086;28;20401;-64
2022/12/12 12:51:49;;;;;;;0.63;0.63;;;4.40;99.90;;;;;;5010977;28;20057;-65
2022/12/12 12:54:24;;;;;;;0.40;0.40;;;4.60;99.90;;;;;;5010220;28;20030;-65
2022/12/12 12:57:04;;;;;;;1.00;0.95;;;4.60;99.90;;;;;;5009495;28;20041;-65
2022/12/12 12:59:37;;;;;;;1.38;1.35;;;4.70;99.90;;;;;;5009154;28;20524;-65
2022/12/12 13:02:35;;;;;;;0.10;0.10;;;4.80;99.90;;;;;;5009741;28;20081;-65
2022/12/12 13:05:16;;;;;;;0.22;0.22;;;5.00;99.90;;;;;;5009732;28;20077;-66
2022/12/12 13:07:50;;;;;;;6.93;4.20;;;5.20;99.90;;;;;;5009060;28;20563;-65
2022/12/12 13:10:21;;;;;;;0.75;0.65;;;5.50;99.90;;;;;;5008529;28;20049;-66
2022/12/12 13:13:06;;;;;;;2.03;1.85;;;5.50;99.90;;;;;;5009156;28;20179;-65
2022/12/12 13:15:37;;;;;;;0.68;0.68;;;5.40;99.90;;;;;;5008629;28;20065;-66
2022/12/12 13:18:15;;;;;;;0.68;0.68;;;5.40;99.90;;;;;;5009333;28;20041;-66
2022/12/12 13:20:50;;;;;;;0.57;0.57;;;5.60;99.90;;;;;;5008326;28;20753;-66
2022/12/12 13:23:19;;;;;;;0.25;0.25;;;5.80;99.90;;;;;;5010589;28;20129;-66
2022/12/12 13:26:01;;;;;;;0.60;0.60;;;5.80;99.90;;;;;;5008820;28;20478;-66
2022/12/12 13:28:34;;;;;;;2.20;1.80;;;5.70;99.90;;;;;;5009246;28;20163;-66
2022/12/12 13:31:29;;;;;;;1.40;1.30;;;5.60;99.90;;;;;;5010149;28;20093;-66
2022/12/12 13:34:08;;;;;;;0.40;0.40;;;5.70;99.90;;;;;;4976171;28;20376;-66
2022/12/12 13:36:38;;;;;;;0.32;0.32;;;5.40;99.90;;;;;;5006739;28;20065;-66
2022/12/12 13:39:06;;;;;;;0.30;0.30;;;5.00;99.90;;;;;;5001779;28;20057;-65